createdAt,value
2018-03-15T00:01:31.724Z,101245.20
2018-03-15T00:03:59.384Z,101246.02
2018-03-15T00:06:26.992Z,101245.17
2018-03-15T00:08:54.625Z,101246.89
2018-03-15T00:11:22.241Z,101249.45
2018-03-15T00:13:49.876Z,101256.27
2018-03-15T00:16:17.488Z,101256.70
2018-03-15T00:18:45.126Z,101255.36
2018-03-15T00:21:12.742Z,101257.92
2018-03-15T00:23:40.378Z,101253.17
2018-03-15T00:26:07.990Z,101254.42
2018-03-15T00:28:35.640Z,101255.64
2018-03-15T00:31:03.257Z,101253.14
2018-03-15T00:33:30.868Z,101254.80
2018-03-15T00:35:58.585Z,101253.02
2018-03-15T00:38:26.202Z,101258.59
2018-03-15T00:40:53.841Z,101260.28
2018-03-15T00:43:21.478Z,101255.62
2018-03-15T00:45:49.154Z,101257.43
2018-03-15T00:48:16.804Z,101253.23
2018-03-15T00:50:44.469Z,101252.02
2018-03-15T00:53:12.081Z,101255.45
2018-03-15T00:55:39.717Z,101252.92
2018-03-15T00:58:07.337Z,101253.45
2018-03-15T01:00:34.988Z,101250.86
2018-03-15T01:03:02.677Z,101251.73
2018-03-15T01:05:30.288Z,101252.20
2018-03-15T01:07:57.926Z,101250.88
2018-03-15T01:10:25.567Z,101256.02
2018-03-15T01:12:53.228Z,101248.78
2018-03-15T01:15:20.840Z,101248.76
2018-03-15T01:17:48.483Z,101247.91
2018-03-15T01:20:16.109Z,101251.76
2018-03-15T01:22:43.772Z,101252.20
2018-03-15T01:25:11.445Z,101247.56
2018-03-15T01:27:39.081Z,101249.72
2018-03-15T01:30:06.758Z,101244.16
2018-03-15T01:32:34.389Z,101245.88
2018-03-15T01:35:02.099Z,101247.13
2018-03-15T01:37:29.753Z,101241.94
2018-03-15T01:39:57.416Z,101241.47
2018-03-15T01:42:25.172Z,101239.75
2018-03-15T01:44:52.849Z,101242.22
2018-03-15T01:47:20.513Z,101244.73
2018-03-15T01:49:48.156Z,101240.39
2018-03-15T01:52:15.776Z,101241.55
2018-03-15T01:54:43.412Z,101234.70
2018-03-15T01:57:11.024Z,101236.39
2018-03-15T01:59:38.650Z,101236.27
2018-03-15T02:02:06.272Z,101238.80
2018-03-15T02:04:33.941Z,101240.02
2018-03-15T02:07:01.556Z,101230.61
2018-03-15T02:09:29.273Z,101229.70
2018-03-15T02:11:56.936Z,101226.20
2018-03-15T02:14:24.592Z,101231.73
2018-03-15T02:16:52.260Z,101230.42
2018-03-15T02:19:19.916Z,101229.46
2018-03-15T02:21:47.539Z,101231.05
2018-03-15T02:24:15.161Z,101227.59
2018-03-15T02:26:42.905Z,101226.24
2018-03-15T02:29:10.611Z,101221.91
2018-03-15T02:31:38.337Z,101222.68
2018-03-15T02:34:05.948Z,101218.78
2018-03-15T02:36:33.662Z,101217.87
2018-03-15T02:39:01.326Z,101212.80
2018-03-15T02:41:28.976Z,101213.65
2018-03-15T02:43:56.645Z,101219.68
2018-03-15T02:46:24.313Z,101212.80
2018-03-15T02:48:51.944Z,101214.93
2018-03-15T02:51:19.638Z,101211.12
2018-03-15T02:53:47.296Z,101211.96
2018-03-15T02:56:14.917Z,101209.42
2018-03-15T02:58:42.615Z,101213.68
2018-03-15T03:01:10.389Z,101211.96
2018-03-15T03:03:38.048Z,101216.59
2018-03-15T03:06:05.651Z,101216.97
2018-03-15T03:08:33.293Z,101219.44
2018-03-15T03:11:00.900Z,101216.03
2018-03-15T03:13:28.533Z,101216.84
2018-03-15T03:15:56.159Z,101222.31
2018-03-15T03:18:23.815Z,101218.44
2018-03-15T03:20:51.482Z,101225.69
2018-03-15T03:23:19.143Z,101219.69
2018-03-15T03:25:46.813Z,101227.78
2018-03-15T03:28:14.429Z,101226.50
2018-03-15T03:30:42.088Z,101230.25
2018-03-15T03:33:09.792Z,101230.13
2018-03-15T03:35:37.469Z,101229.56
2018-03-15T03:38:05.118Z,101232.44
2018-03-15T03:40:32.753Z,101228.57
2018-03-15T03:43:00.453Z,101222.50
2018-03-15T03:45:28.088Z,101222.06
2018-03-15T03:47:55.708Z,101224.98
2018-03-15T03:50:23.345Z,101218.47
2018-03-15T03:52:51.001Z,101225.70
2018-03-15T03:55:19.229Z,101223.47
2018-03-15T03:57:46.941Z,101235.38
2018-03-15T04:00:14.604Z,101220.75
2018-03-15T04:02:42.263Z,101216.79
2018-03-15T04:05:09.907Z,101225.25
2018-03-15T04:07:37.517Z,101233.72
2018-03-15T04:10:05.133Z,101229.00
2018-03-15T04:12:32.772Z,101234.50
2018-03-15T04:15:00.384Z,101228.09
2018-03-15T04:17:28.031Z,101229.78
2018-03-15T04:19:55.644Z,101230.16
2018-03-15T04:22:23.355Z,101239.97
2018-03-15T04:24:50.964Z,101238.62
2018-03-15T04:27:18.693Z,101237.72
2018-03-15T04:29:46.301Z,101236.31
2018-03-15T04:32:13.935Z,101239.28
2018-03-15T04:34:41.544Z,101239.28
2018-03-15T04:37:09.236Z,101234.16
2018-03-15T04:39:36.901Z,101231.09
2018-03-15T04:42:04.520Z,101226.78
2018-03-15T04:44:32.157Z,101232.75
2018-03-15T04:46:59.769Z,101230.12
2018-03-15T04:49:27.406Z,101236.45
2018-03-15T04:51:55.022Z,101235.05
2018-03-15T04:54:22.652Z,101232.39
2018-03-15T04:56:50.265Z,101222.02
2018-03-15T04:59:17.913Z,101227.11
2018-03-15T05:01:45.531Z,101222.33
2018-03-15T05:04:13.214Z,101225.70
2018-03-15T05:06:40.884Z,101237.63
2018-03-15T05:09:08.671Z,101222.23
2018-03-15T05:11:36.307Z,101222.17
2018-03-15T05:14:03.962Z,101226.08
2018-03-15T05:16:31.572Z,101229.08
2018-03-15T05:18:59.176Z,101218.73
2018-03-15T05:21:26.817Z,101226.32
2018-03-15T05:23:54.465Z,101222.31
2018-03-15T05:26:22.184Z,101215.85
2018-03-15T05:28:49.853Z,101219.16
2018-03-15T05:31:17.514Z,101222.16
2018-03-15T05:33:45.571Z,101227.25
2018-03-15T05:36:13.353Z,101219.87
2018-03-15T05:38:40.972Z,101217.66
2018-03-15T05:41:08.669Z,101223.59
2018-03-15T05:43:36.284Z,101222.27
2018-03-15T05:46:04.000Z,101223.05
2018-03-15T05:48:31.666Z,101228.55
2018-03-15T05:50:59.319Z,101228.04
2018-03-15T05:53:26.983Z,101224.20
2018-03-15T05:55:54.813Z,101216.95
2018-03-15T05:58:22.453Z,101223.86
2018-03-15T06:00:50.066Z,101217.86
2018-03-15T06:03:17.698Z,101224.43
2018-03-15T06:05:45.399Z,101220.19
2018-03-15T06:08:13.274Z,101229.17
2018-03-15T06:10:40.929Z,101229.71
2018-03-15T06:13:09.049Z,101227.59
2018-03-15T06:15:36.669Z,101229.38
2018-03-15T06:18:04.380Z,101220.03
2018-03-15T06:20:31.988Z,101225.31
2018-03-15T06:22:59.755Z,101216.48
2018-03-15T06:25:27.529Z,101219.11
2018-03-15T06:27:55.400Z,101226.45
2018-03-15T06:30:23.062Z,101224.73
2018-03-15T06:32:50.685Z,101228.13
2018-03-15T06:35:18.385Z,101235.07
2018-03-15T06:37:46.002Z,101233.76
2018-03-15T06:40:13.629Z,101238.07
2018-03-15T06:42:41.232Z,101236.76
2018-03-15T06:45:08.855Z,101247.00
2018-03-15T06:47:36.466Z,101244.06
2018-03-15T06:50:04.105Z,101243.19
2018-03-15T06:52:31.822Z,101245.28
2018-03-15T06:54:59.448Z,101246.94
2018-03-15T06:57:27.143Z,101238.88
2018-03-15T06:59:54.748Z,101238.54
2018-03-15T07:02:22.381Z,101236.92
2018-03-15T07:04:50.032Z,101239.48
2018-03-15T07:07:17.692Z,101239.89
2018-03-15T07:09:45.290Z,101237.35
2018-03-15T07:12:13.020Z,101238.23
2018-03-15T07:14:40.620Z,101241.23
2018-03-15T07:17:08.265Z,101243.79
2018-03-15T07:19:35.904Z,101246.01
2018-03-15T07:22:03.532Z,101250.02
2018-03-15T07:24:31.141Z,101246.17
2018-03-15T07:26:58.768Z,101244.92
2018-03-15T07:29:26.453Z,101241.61
2018-03-15T07:31:54.085Z,101249.83
2018-03-15T07:34:21.725Z,101244.40
2018-03-15T07:36:49.344Z,101240.62
2018-03-15T07:39:17.064Z,101245.53
2018-03-15T07:41:44.664Z,101240.91
2018-03-15T07:44:12.269Z,101238.97
2018-03-15T07:46:39.986Z,101241.66
2018-03-15T07:49:07.583Z,101243.56
2018-03-15T07:51:35.183Z,101233.23
2018-03-15T07:54:02.821Z,101235.19
2018-03-15T07:56:30.433Z,101236.22
2018-03-15T07:58:58.059Z,101237.09
2018-03-15T08:01:25.765Z,101234.97
2018-03-15T08:03:53.387Z,101226.63
2018-03-15T08:06:21.001Z,101227.63
2018-03-15T08:08:48.661Z,101220.12
2018-03-15T08:11:16.308Z,101225.39
2018-03-15T08:13:43.937Z,101226.74
2018-03-15T08:16:11.548Z,101219.17
2018-03-15T08:18:39.157Z,101224.80
2018-03-15T08:21:06.793Z,101234.80
2018-03-15T08:23:34.405Z,101226.73
2018-03-15T08:26:02.033Z,101230.11
2018-03-15T08:28:29.645Z,101227.45
2018-03-15T08:30:57.281Z,101227.45
2018-03-15T08:33:24.945Z,101227.45
2018-03-15T08:35:52.741Z,101227.48
2018-03-15T08:38:20.404Z,101228.02
2018-03-15T08:40:48.067Z,101229.27
2018-03-15T08:43:15.667Z,101228.89
2018-03-15T08:45:43.305Z,101219.33
2018-03-15T08:48:10.929Z,101219.23
2018-03-15T08:50:38.564Z,101219.61
2018-03-15T08:53:06.182Z,101213.61
2018-03-15T08:55:33.837Z,101215.27
2018-03-15T08:58:01.448Z,101213.52
2018-03-15T09:00:29.095Z,101215.70
2018-03-15T09:02:56.711Z,101219.23
2018-03-15T09:05:24.329Z,101225.70
2018-03-15T09:07:51.969Z,101220.70
2018-03-15T09:10:19.605Z,101216.06
2018-03-15T09:12:47.260Z,101213.06
2018-03-15T09:15:14.874Z,101215.66
2018-03-15T09:17:42.506Z,101204.59
2018-03-15T09:20:10.152Z,101200.34
2018-03-15T09:22:37.798Z,101201.74
2018-03-15T09:25:05.417Z,101206.61
2018-03-15T09:27:33.045Z,101210.98
2018-03-15T09:30:00.663Z,101200.85
2018-03-15T09:32:28.365Z,101202.72
2018-03-15T09:34:56.039Z,101196.11
2018-03-15T09:37:23.693Z,101198.38
2018-03-15T09:39:51.320Z,101201.53
2018-03-15T09:42:18.991Z,101194.39
2018-03-15T09:44:47.186Z,101203.14
2018-03-15T09:47:14.822Z,101201.62
2018-03-15T09:49:42.517Z,101195.33
2018-03-15T09:52:10.140Z,101194.16
2018-03-15T09:54:37.836Z,101193.00
2018-03-15T09:57:05.476Z,101192.68
2018-03-15T09:59:33.131Z,101187.75
2018-03-15T10:02:00.833Z,101180.31
2018-03-15T10:04:28.597Z,101175.97
2018-03-15T10:06:56.256Z,101178.93
2018-03-15T10:09:23.915Z,101169.98
2018-03-15T10:11:51.588Z,101173.05
2018-03-15T10:14:19.255Z,101172.11
2018-03-15T10:16:46.918Z,101159.63
2018-03-15T10:19:14.565Z,101154.59
2018-03-15T10:21:42.231Z,101162.08
2018-03-15T10:24:09.948Z,101160.22
2018-03-15T10:26:37.577Z,101155.75
2018-03-15T10:29:05.216Z,101151.81
2018-03-15T10:31:32.889Z,101152.05
2018-03-15T10:34:00.528Z,101144.55
2018-03-15T10:36:28.180Z,101139.62
2018-03-15T10:38:55.792Z,101145.45
2018-03-15T10:41:23.530Z,101140.54
2018-03-15T10:43:51.200Z,101149.39
2018-03-15T10:46:18.841Z,101146.02
2018-03-15T10:48:46.481Z,101145.66
2018-03-15T10:51:14.141Z,101134.92
2018-03-15T10:53:41.761Z,101140.66
2018-03-15T10:56:09.517Z,101132.20
2018-03-15T10:58:37.145Z,101136.22
2018-03-15T11:01:06.715Z,101137.20
2018-03-15T11:03:40.016Z,101135.52
2018-03-15T11:06:10.395Z,101134.44
2018-03-15T11:08:38.016Z,101140.55
2018-03-15T11:11:15.257Z,101134.63
2018-03-15T11:13:42.911Z,101140.98
2018-03-15T11:16:10.587Z,101131.60
2018-03-15T11:18:38.217Z,101127.45
2018-03-15T11:21:05.877Z,101132.27
2018-03-15T11:23:33.575Z,101135.08
2018-03-15T11:26:01.229Z,101124.67
2018-03-15T11:28:28.879Z,101122.49
2018-03-15T11:30:56.560Z,101120.34
2018-03-15T11:33:24.221Z,101115.56
2018-03-15T11:35:51.853Z,101112.27
2018-03-15T11:38:19.509Z,101110.14
2018-03-15T11:40:47.127Z,101120.83
2018-03-15T11:43:14.869Z,101117.21
2018-03-15T11:45:42.504Z,101110.91
2018-03-15T11:48:10.161Z,101114.67
2018-03-15T11:50:37.831Z,101119.91
2018-03-15T11:53:05.459Z,101114.42
2018-03-15T11:55:33.193Z,101108.09
2018-03-15T11:58:00.954Z,101112.61
2018-03-15T12:00:28.592Z,101105.66
2018-03-15T12:02:56.245Z,101105.44
2018-03-15T12:05:23.873Z,101108.22
2018-03-15T12:07:51.605Z,101107.63
2018-03-15T12:10:19.264Z,101106.59
2018-03-15T12:12:46.897Z,101098.56
2018-03-15T12:15:14.535Z,101094.47
2018-03-15T12:17:42.257Z,101083.50
2018-03-15T12:20:09.912Z,101089.05
2018-03-15T12:22:37.516Z,101086.02
2018-03-15T12:25:05.145Z,101084.16
2018-03-15T12:27:32.744Z,101080.57
2018-03-15T12:30:00.373Z,101078.20
2018-03-15T12:32:28.019Z,101083.96
2018-03-15T12:34:55.684Z,101074.48
2018-03-15T12:37:23.345Z,101066.32
2018-03-15T12:39:50.988Z,101065.98
2018-03-15T12:42:18.607Z,101056.98
2018-03-15T12:44:46.237Z,101054.03
2018-03-15T12:47:13.904Z,101054.03
2018-03-15T12:49:41.538Z,101051.91
2018-03-15T12:52:09.140Z,101050.12
2018-03-15T12:54:36.779Z,101059.14
2018-03-15T12:57:04.409Z,101054.91
2018-03-15T12:59:32.112Z,101056.73
2018-03-15T13:01:59.777Z,101049.31
2018-03-15T13:04:27.436Z,101051.31
2018-03-15T13:06:55.064Z,101048.14
2018-03-15T13:09:22.668Z,101047.00
2018-03-15T13:11:50.302Z,101038.48
2018-03-15T13:14:17.907Z,101054.78
2018-03-15T13:16:45.653Z,101045.70
2018-03-15T13:19:13.313Z,101047.04
2018-03-15T13:21:40.967Z,101040.59
2018-03-15T13:24:08.572Z,101039.38
2018-03-15T13:26:36.301Z,101044.16
2018-03-15T13:29:03.966Z,101055.53
2018-03-15T13:31:31.598Z,101045.14
2018-03-15T13:33:59.218Z,101039.16
2018-03-15T13:36:26.844Z,101041.47
2018-03-15T13:38:54.471Z,101035.56
2018-03-15T13:41:22.172Z,101040.80
2018-03-15T13:43:49.874Z,101034.48
2018-03-15T13:46:17.500Z,101043.23
2018-03-15T13:48:45.133Z,101031.65
2018-03-15T13:51:12.741Z,101035.53
2018-03-15T13:53:40.372Z,101025.21
2018-03-15T13:56:08.054Z,101022.64
2018-03-15T13:58:35.684Z,101032.97
2018-03-15T14:01:03.378Z,101020.10
2018-03-15T14:03:31.008Z,101020.50
2018-03-15T14:05:58.701Z,101019.23
2018-03-15T14:08:26.561Z,101024.48
2018-03-15T14:10:54.235Z,101021.44
2018-03-15T14:13:21.886Z,101017.07
2018-03-15T14:15:49.570Z,101014.05
2018-03-15T14:18:17.172Z,101004.13
2018-03-15T14:20:44.800Z,101010.89
2018-03-15T14:23:12.441Z,101006.47
2018-03-15T14:25:40.109Z,101011.96
2018-03-15T14:28:07.769Z,101011.52
2018-03-15T14:30:35.409Z,100998.08
2018-03-15T14:33:03.013Z,100996.59
2018-03-15T14:35:30.744Z,100995.19
2018-03-15T14:37:58.351Z,100990.34
2018-03-15T14:40:25.985Z,100987.16
2018-03-15T14:42:53.579Z,100981.05
2018-03-15T14:45:21.634Z,100980.55
2018-03-15T14:47:49.241Z,100974.12
2018-03-15T14:50:16.873Z,100977.09
2018-03-15T14:52:44.538Z,100974.45
2018-03-15T14:55:12.129Z,100969.14
2018-03-15T14:57:39.816Z,100972.45
2018-03-15T15:00:07.450Z,100972.75
2018-03-15T15:02:35.063Z,100969.59
2018-03-15T15:05:02.718Z,100968.69
2018-03-15T15:07:30.365Z,100964.32
2018-03-15T15:09:58.092Z,100964.13
2018-03-15T15:12:25.723Z,100961.42
2018-03-15T15:14:53.361Z,100957.41
2018-03-15T15:17:20.988Z,100955.56
2018-03-15T15:19:48.601Z,100954.03
2018-03-15T15:22:16.251Z,100961.22
2018-03-15T15:24:43.913Z,100955.06
2018-03-15T15:27:11.559Z,100963.89
2018-03-15T15:29:39.178Z,100963.34
2018-03-15T15:32:06.810Z,100953.42
2018-03-15T15:34:34.433Z,100948.59
2018-03-15T15:37:02.116Z,100946.86
2018-03-15T15:39:29.789Z,100951.13
2018-03-15T15:41:57.407Z,100954.83
2018-03-15T15:44:25.008Z,100946.15
2018-03-15T15:46:52.628Z,100947.77
2018-03-15T15:49:20.993Z,100942.20
2018-03-15T15:51:48.713Z,100938.72
2018-03-15T15:54:16.321Z,100943.44
2018-03-15T15:56:44.044Z,100939.09
2018-03-15T15:59:11.697Z,100944.98
2018-03-15T16:01:39.299Z,100947.53
2018-03-15T16:04:06.924Z,100949.21
2018-03-15T16:06:34.528Z,100947.41
2018-03-15T16:09:02.246Z,100947.75
2018-03-15T16:11:29.853Z,100946.88
2018-03-15T16:13:57.489Z,100942.52
2018-03-15T16:16:25.136Z,100935.13
2018-03-15T16:18:52.791Z,100934.48
2018-03-15T16:21:20.411Z,100933.03
2018-03-15T16:23:48.040Z,100932.06
2018-03-15T16:26:15.685Z,100935.75
2018-03-15T16:28:43.343Z,100937.58
2018-03-15T16:31:10.936Z,100923.07
2018-03-15T16:33:38.678Z,100934.90
2018-03-15T16:36:06.289Z,100930.77
2018-03-15T16:38:33.913Z,100930.89
2018-03-15T16:41:01.515Z,100936.23
2018-03-15T16:43:29.217Z,100936.83
2018-03-15T16:45:56.819Z,100943.88
2018-03-15T16:48:24.553Z,100934.17
2018-03-15T16:50:52.249Z,100937.35
2018-03-15T16:53:19.856Z,100934.55
2018-03-15T16:55:47.531Z,100939.91
2018-03-15T16:58:15.127Z,100937.54
2018-03-15T17:00:42.865Z,100942.43
2018-03-15T17:03:10.533Z,100936.11
2018-03-15T17:05:38.155Z,100935.02
2018-03-15T17:08:05.757Z,100936.03
2018-03-15T17:10:33.378Z,100931.45
2018-03-15T17:13:01.076Z,100932.40
2018-03-15T17:15:28.703Z,100940.66
2018-03-15T17:17:56.299Z,100936.13
2018-03-15T17:20:23.929Z,100936.70
2018-03-15T17:22:51.720Z,100936.86
2018-03-15T17:25:19.385Z,100937.91
2018-03-15T17:27:46.997Z,100938.13
2018-03-15T17:30:14.672Z,100942.76
2018-03-15T17:32:42.273Z,100948.73
2018-03-15T17:35:09.936Z,100948.27
2018-03-15T17:37:37.596Z,100954.73
2018-03-15T17:40:05.196Z,100954.41
2018-03-15T17:42:32.924Z,100958.80
2018-03-15T17:45:00.537Z,100961.42
2018-03-15T17:47:28.252Z,100961.94
2018-03-15T17:49:56.012Z,100970.53
2018-03-15T17:52:23.668Z,100972.74
2018-03-15T17:54:51.348Z,100974.05
2018-03-15T17:57:18.971Z,100975.39
2018-03-15T17:59:46.576Z,100975.85
2018-03-15T18:02:14.287Z,100976.70
2018-03-15T18:04:41.905Z,100976.31
2018-03-15T18:07:09.557Z,100977.22
2018-03-15T18:09:37.171Z,100982.37
2018-03-15T18:12:04.889Z,100980.59
2018-03-15T18:14:32.501Z,100978.88
2018-03-15T18:17:00.108Z,100986.98
2018-03-15T18:19:27.736Z,100981.39
2018-03-15T18:21:55.418Z,100981.88
2018-03-15T18:24:23.044Z,100990.59
2018-03-15T18:26:50.757Z,100991.88
2018-03-15T18:29:18.380Z,100989.68
2018-03-15T18:31:46.090Z,100994.88
2018-03-15T18:34:13.725Z,100998.74
2018-03-15T18:36:41.437Z,100994.90
2018-03-15T18:39:09.062Z,100999.18
2018-03-15T18:41:36.664Z,101000.87
2018-03-15T18:44:04.387Z,100997.90
2018-03-15T18:46:32.061Z,100995.36
2018-03-15T18:48:59.727Z,101003.98
2018-03-15T18:51:27.380Z,100998.53
2018-03-15T18:53:55.017Z,101003.22
2018-03-15T18:56:22.712Z,101009.69
2018-03-15T18:58:50.364Z,101009.75
2018-03-15T19:01:18.003Z,101009.28
2018-03-15T19:03:45.595Z,101014.03
2018-03-15T19:06:13.219Z,101022.19
2018-03-15T19:08:40.853Z,101023.12
2018-03-15T19:11:08.485Z,101019.35
2018-03-15T19:13:36.299Z,101024.13
2018-03-15T19:16:03.936Z,101023.75
2018-03-15T19:18:31.565Z,101020.86
2018-03-15T19:20:59.236Z,101028.61
2018-03-15T19:23:27.769Z,101030.77
2018-03-15T19:25:55.408Z,101029.95
2018-03-15T19:28:23.020Z,101039.88
2018-03-15T19:30:50.698Z,101034.41
2018-03-15T19:33:18.373Z,101035.83
2018-03-15T19:35:45.999Z,101032.55
2018-03-15T19:38:13.692Z,101025.41
2018-03-15T19:40:41.364Z,101027.19
2018-03-15T19:43:09.034Z,101022.61
2018-03-15T19:45:36.675Z,101022.69
2018-03-15T19:48:05.201Z,101034.28
2018-03-15T19:50:32.814Z,101036.47
2018-03-15T19:53:00.460Z,101030.92
2018-03-15T19:55:28.147Z,101028.36
2018-03-15T19:57:55.812Z,101027.90
2018-03-15T20:00:23.435Z,101034.70
2018-03-15T20:02:51.077Z,101027.81
2018-03-15T20:05:18.705Z,101031.23
2018-03-15T20:07:46.337Z,101026.05
2018-03-15T20:10:13.985Z,101027.65
2018-03-15T20:12:41.695Z,101026.34
2018-03-15T20:15:09.352Z,101016.84
2018-03-15T20:17:37.533Z,101016.44
2018-03-15T20:20:05.165Z,101009.06
2018-03-15T20:22:38.540Z,101013.30
2018-03-15T20:25:06.171Z,101021.78
2018-03-15T20:27:39.518Z,101024.64
2018-03-15T20:30:07.245Z,101016.39
2018-03-15T20:32:40.583Z,101021.09
2018-03-15T20:35:08.213Z,101018.91
2018-03-15T20:37:35.885Z,101006.37
2018-03-15T20:40:09.005Z,101018.68
2018-03-15T20:42:36.617Z,101025.00
2018-03-15T20:45:04.240Z,101017.17
2018-03-15T20:47:37.451Z,101026.49
2018-03-15T20:50:05.084Z,101031.04
2018-03-15T20:52:32.701Z,101031.89
2018-03-15T20:55:00.316Z,101033.92
2018-03-15T20:57:27.979Z,101029.59
2018-03-15T20:59:55.746Z,101031.20
2018-03-15T21:02:23.396Z,101032.36
2018-03-15T21:04:51.071Z,101028.02
2018-03-15T21:07:18.735Z,101019.41
2018-03-15T21:09:46.336Z,101022.81
2018-03-15T21:12:13.953Z,101018.79
2018-03-15T21:14:41.630Z,101023.34
2018-03-15T21:17:09.256Z,101014.34
2018-03-15T21:19:36.874Z,101021.12
2018-03-15T21:22:04.607Z,101015.09
2018-03-15T21:24:32.231Z,101011.66
2018-03-15T21:26:59.962Z,101015.39
2018-03-15T21:29:27.700Z,101009.83
2018-03-15T21:31:55.313Z,101012.73
2018-03-15T21:34:23.003Z,101007.12
2018-03-15T21:36:50.701Z,101006.16
2018-03-15T21:39:18.327Z,101006.48
2018-03-15T21:41:45.939Z,100999.14
2018-03-15T21:44:13.564Z,101011.48
2018-03-15T21:46:41.236Z,101011.83
2018-03-15T21:49:08.872Z,101011.37
2018-03-15T21:51:36.480Z,101011.78
2018-03-15T21:54:04.113Z,101010.81
2018-03-15T21:56:31.798Z,101001.82
2018-03-15T21:58:59.448Z,101006.51
2018-03-15T22:01:27.055Z,101006.53
2018-03-15T22:03:54.689Z,101004.41
2018-03-15T22:06:22.339Z,101006.88
2018-03-15T22:08:50.420Z,101003.01
2018-03-15T22:11:18.039Z,101008.55
2018-03-15T22:13:45.649Z,101002.92
2018-03-15T22:16:13.293Z,101011.42
2018-03-15T22:18:40.909Z,101009.18
2018-03-15T22:21:08.540Z,101014.25
2018-03-15T22:23:36.189Z,101018.88
2018-03-15T22:26:03.873Z,101023.94
2018-03-15T22:28:31.485Z,101019.98
2018-03-15T22:30:59.122Z,101017.35
2018-03-15T22:33:26.727Z,101023.32
2018-03-15T22:35:54.362Z,101025.42
2018-03-15T22:38:21.973Z,101018.14
2018-03-15T22:40:49.603Z,101018.08
2018-03-15T22:43:17.221Z,101026.98
2018-03-15T22:45:44.851Z,101019.65
2018-03-15T22:48:12.509Z,101028.59
2018-03-15T22:50:40.165Z,101027.59
2018-03-15T22:53:07.772Z,101026.77
2018-03-15T22:55:35.419Z,101030.50
2018-03-15T22:58:03.040Z,101031.22
2018-03-15T23:00:30.659Z,101029.94
2018-03-15T23:02:58.313Z,101029.91
2018-03-15T23:05:25.934Z,101030.73
2018-03-15T23:07:53.567Z,101034.56
2018-03-15T23:10:21.176Z,101032.79
2018-03-15T23:12:48.819Z,101037.01
2018-03-15T23:15:16.493Z,101036.05
2018-03-15T23:17:44.123Z,101029.61
2018-03-15T23:20:11.793Z,101032.89
2018-03-15T23:22:39.410Z,101035.33
2018-03-15T23:25:07.012Z,101032.27
2018-03-15T23:27:34.625Z,101033.43
2018-03-15T23:30:02.262Z,101028.62
2018-03-15T23:32:30.690Z,101027.25
2018-03-15T23:34:58.403Z,101031.34
2018-03-15T23:37:26.013Z,101025.30
2018-03-15T23:39:53.639Z,101016.15
2018-03-15T23:42:21.247Z,101015.16
2018-03-15T23:44:48.877Z,101008.98
2018-03-15T23:47:16.515Z,101020.72
2018-03-15T23:49:44.292Z,101023.16
2018-03-15T23:52:11.909Z,101010.55
2018-03-15T23:54:39.609Z,101013.02
2018-03-15T23:57:07.280Z,101020.06
2018-03-15T23:59:34.892Z,101016.51
